Gamaliel, AR (72537)

5:07 AM CDT on August 29, 2015 (GMT -0500)
Baxter County Regional | | Change Station
CLOSE
Current Station
Airport
Location: Mountain Home,
Elevation: 925 ft
Nearby Weather Stations

Elev 925 ft 36.37 °N, 92.47 °W | Updated 14 minutes ago

Light Rain
Light Rain
67 °F
Feels Like 67 °F
N
5
Wind Variable Wind from South

Today
High -- | Low -- °F
--% Chance of Precip.
Yesterday
High -- | Low -- °F
Precip. -- in
6:38 AM 7:42 PM
Full, 100% visible
Pressure 30.00 in
Visibility 9.0 miles
Clouds Mostly Cloudy 10000 ft
Overcast 12000 ft
Dew Point 62 °F
Humidity 84%
Rainfall 0.02 in
Snow Depth Not available.
UV 0 out of 12
Pollen 10.00 out of 12
Air Quality Not available.
Flu Activity Not available.
METAR KBPK 290953Z AUTO 17004KT 9SM -RA BKN100 OVC120 19/17 A3002 RMK AO2 SLP157 P0001 T01940167
Pressure 30.00 in
Visibility 9.0 miles
Clouds Mostly Cloudy 10000 ft
Overcast 12000 ft
Dew Point 62 °F
Humidity 84%
Rainfall 0.02 in
Snow Depth Not available.
UV 0 out of 12
Pollen 10.00 out of 12
Air Quality Not available.
Flu Activity Not available.
METAR KBPK 290953Z AUTO 17004KT 9SM -RA BKN100 OVC120 19/17 A3002 RMK AO2 SLP157 P0001 T01940167

10-Day Weather Forecast

×

Almanac

Astronomy

Aug. 29, 2015 Rise Set
Actual Time
Civil Twilight
Nautical Twilight
Astronomical Twilight
Moon
Length of Visible Light
Length of Day
Tomorrow will be .
, % of the Moon is Illuminated

Today's Extremes

State Highs State Lows

Community

WunderPhotos

Upload Photos

1,850,634 photos uploaded!

WunderBlogs® & News

Nearby

Air Quality

  Air Quality AQ Index Pollutant
Not available.

Snow Depth

Station Depth Elevation

Earthquake Activity

City Distance Mag. Time & Date
Minimum magnitude displayed is 2.5.

Coastal Water Temperatures

Place Temperature

Stations

Nearby Weather Stations

Station Location Temp. Windchill Dew Point Humidity Wind Precip. Elev Updated Type